createdAt,value
2023-05-17T00:00:17.058Z,3.97
2023-05-17T00:03:02.331Z,4.33
2023-05-17T00:05:47.557Z,3.70
2023-05-17T00:08:32.846Z,3.30
2023-05-17T00:11:18.308Z,3.63
2023-05-17T00:14:03.807Z,3.23
2023-05-17T00:16:49.078Z,4.53
2023-05-17T00:19:34.675Z,4.80
2023-05-17T00:22:19.937Z,3.73
2023-05-17T00:25:05.601Z,3.63
2023-05-17T00:27:51.173Z,2.70
2023-05-17T00:30:36.466Z,4.27
2023-05-17T00:33:22.157Z,3.17
2023-05-17T00:36:07.494Z,3.67
2023-05-17T00:38:53.237Z,3.93
2023-05-17T00:41:38.699Z,3.40
2023-05-17T00:44:23.935Z,4.13
2023-05-17T00:47:09.322Z,3.00
2023-05-17T00:49:54.493Z,4.27
2023-05-17T00:52:40.223Z,3.50
2023-05-17T00:55:25.441Z,4.87
2023-05-17T00:58:15.037Z,3.97
2023-05-17T01:01:01.859Z,5.43
2023-05-17T01:03:47.599Z,2.70
2023-05-17T01:06:33.601Z,3.53
2023-05-17T01:09:19.125Z,3.67
2023-05-17T01:12:07.386Z,3.77
2023-05-17T01:15:33.069Z,2.97
2023-05-17T01:18:27.670Z,3.03
2023-05-17T01:21:57.375Z,2.80
2023-05-17T01:24:59.597Z,3.10
2023-05-17T01:27:50.179Z,3.50
2023-05-17T01:30:38.155Z,4.03
2023-05-17T01:33:23.584Z,3.07
2023-05-17T01:36:09.715Z,2.77
2023-05-17T01:38:55.143Z,3.00
2023-05-17T01:41:42.259Z,3.23
2023-05-17T01:44:59.564Z,3.60
2023-05-17T01:47:56.829Z,3.60
2023-05-17T01:50:43.869Z,4.27
2023-05-17T01:53:40.294Z,2.60
2023-05-17T01:56:34.677Z,3.13
2023-05-17T01:59:25.181Z,2.40
2023-05-17T02:02:10.775Z,2.67
2023-05-17T02:04:56.168Z,3.37
2023-05-17T02:07:41.379Z,2.20
2023-05-17T02:10:26.826Z,3.20
2023-05-17T02:13:12.801Z,2.73
2023-05-17T02:16:02.458Z,2.70
2023-05-17T02:18:47.914Z,2.43
2023-05-17T02:21:33.264Z,3.53
2023-05-17T02:24:18.467Z,2.50
2023-05-17T02:27:03.893Z,3.43
2023-05-17T02:29:50.437Z,3.70
2023-05-17T02:32:35.820Z,1.90
2023-05-17T02:35:20.917Z,4.47
2023-05-17T02:38:09.280Z,3.83
2023-05-17T02:40:54.643Z,1.83
2023-05-17T02:43:39.811Z,2.63
2023-05-17T02:46:25.103Z,2.97
2023-05-17T02:49:10.621Z,2.77
2023-05-17T02:51:56.256Z,2.77
2023-05-17T02:54:43.470Z,3.23
2023-05-17T02:57:29.159Z,2.27
2023-05-17T03:00:15.030Z,3.50
2023-05-17T03:03:00.263Z,6.17
2023-05-17T03:05:45.964Z,9.10
2023-05-17T03:08:31.700Z,19.80
2023-05-17T03:11:18.467Z,5.17
2023-05-17T03:14:03.812Z,5.53
2023-05-17T03:16:50.122Z,6.73
2023-05-17T03:19:36.430Z,4.97
2023-05-17T03:22:22.391Z,5.93
2023-05-17T03:25:08.614Z,4.53
2023-05-17T03:27:55.524Z,9.37
2023-05-17T03:30:41.094Z,8.10
2023-05-17T03:33:27.592Z,6.27
2023-05-17T03:36:13.320Z,4.63
2023-05-17T03:38:59.111Z,3.87
2023-05-17T03:41:44.819Z,8.27
2023-05-17T03:44:31.167Z,4.47
2023-05-17T03:47:16.431Z,8.73
2023-05-17T03:50:02.737Z,8.27
2023-05-17T03:52:51.053Z,9.40
2023-05-17T03:55:37.376Z,8.00
2023-05-17T03:58:23.560Z,6.80
2023-05-17T04:01:08.803Z,10.07
2023-05-17T04:03:54.239Z,13.40
2023-05-17T04:06:41.365Z,11.97
2023-05-17T04:09:26.886Z,7.93
2023-05-17T04:12:12.157Z,7.00
2023-05-17T04:14:57.882Z,6.40
2023-05-17T04:17:44.380Z,5.70
2023-05-17T04:20:29.955Z,6.13
2023-05-17T04:23:16.095Z,7.63
2023-05-17T04:26:01.639Z,6.27
2023-05-17T04:28:49.187Z,7.10
2023-05-17T04:31:35.752Z,9.07
2023-05-17T04:34:25.022Z,11.60
2023-05-17T04:37:12.505Z,8.50
2023-05-17T04:39:59.292Z,14.90
2023-05-17T04:42:47.733Z,11.40
2023-05-17T04:45:33.996Z,7.90
2023-05-17T04:48:20.971Z,8.47
2023-05-17T04:51:06.369Z,10.50
2023-05-17T04:53:51.605Z,6.17
2023-05-17T04:56:37.663Z,6.50
2023-05-17T04:59:27.653Z,9.50
2023-05-17T05:02:13.154Z,7.23
2023-05-17T05:04:58.915Z,7.73
2023-05-17T05:07:44.286Z,7.03
2023-05-17T05:10:32.033Z,8.87
2023-05-17T05:13:18.188Z,7.83
2023-05-17T05:16:03.913Z,9.00
2023-05-17T05:18:49.597Z,7.53
2023-05-17T05:21:35.010Z,9.17
2023-05-17T05:24:20.161Z,7.40
2023-05-17T05:27:07.202Z,11.57
2023-05-17T05:29:54.693Z,9.37
2023-05-17T05:32:40.407Z,9.93
2023-05-17T05:35:30.381Z,8.57
2023-05-17T05:38:16.832Z,8.27
2023-05-17T05:41:02.724Z,10.03
2023-05-17T05:43:48.430Z,7.93
2023-05-17T05:46:33.778Z,8.37
2023-05-17T05:49:22.347Z,8.17
2023-05-17T05:52:08.274Z,9.30
2023-05-17T05:54:55.289Z,9.50
2023-05-17T05:57:40.559Z,9.07
2023-05-17T06:00:26.203Z,7.37
2023-05-17T06:03:11.858Z,10.13
2023-05-17T06:05:57.255Z,11.37
2023-05-17T06:08:45.138Z,9.80
2023-05-17T06:11:30.381Z,10.87
2023-05-17T06:14:15.967Z,11.57
2023-05-17T06:17:01.480Z,9.87
2023-05-17T06:19:49.156Z,7.53
2023-05-17T06:22:34.628Z,8.77
2023-05-17T06:25:19.947Z,11.00
2023-05-17T06:28:05.569Z,6.90
2023-05-17T06:30:51.073Z,9.43
2023-05-17T06:33:36.241Z,9.20
2023-05-17T06:36:21.699Z,9.20
2023-05-17T06:39:07.169Z,8.43
2023-05-17T06:41:52.732Z,10.30
2023-05-17T06:44:37.923Z,9.07
2023-05-17T06:47:23.133Z,7.50
2023-05-17T06:50:09.001Z,7.30
2023-05-17T06:52:54.342Z,7.63
2023-05-17T06:55:40.432Z,9.07
2023-05-17T06:58:25.559Z,7.57
2023-05-17T07:01:10.872Z,11.07
2023-05-17T07:03:56.883Z,7.53
2023-05-17T07:06:42.303Z,8.03
2023-05-17T07:09:27.677Z,8.13
2023-05-17T07:12:13.264Z,7.43
2023-05-17T07:14:58.611Z,9.93
2023-05-17T07:17:43.850Z,8.77
2023-05-17T07:20:29.099Z,6.40
2023-05-17T07:23:14.691Z,11.17
2023-05-17T07:25:59.878Z,7.17
2023-05-17T07:28:45.164Z,6.60
2023-05-17T07:31:30.659Z,8.63
2023-05-17T07:34:16.122Z,9.93
2023-05-17T07:37:01.368Z,8.80
2023-05-17T07:39:46.565Z,6.37
2023-05-17T07:42:33.320Z,8.50
2023-05-17T07:45:19.029Z,7.70
2023-05-17T07:48:04.604Z,6.27
2023-05-17T07:50:50.619Z,6.27
2023-05-17T07:53:36.677Z,6.23
2023-05-17T07:56:22.601Z,10.40
2023-05-17T07:59:08.775Z,8.40
2023-05-17T08:01:54.936Z,9.97
2023-05-17T08:04:42.155Z,6.97
2023-05-17T08:07:28.087Z,9.67
2023-05-17T08:10:13.916Z,8.60
2023-05-17T08:13:00.165Z,8.13
2023-05-17T08:15:46.220Z,6.60
2023-05-17T08:18:33.541Z,6.33
2023-05-17T08:21:19.610Z,6.87
2023-05-17T08:24:06.821Z,8.83
2023-05-17T08:26:53.839Z,6.73
2023-05-17T08:29:40.216Z,8.83
2023-05-17T08:32:26.709Z,7.27
2023-05-17T08:35:12.794Z,6.70
2023-05-17T08:37:59.343Z,6.03
2023-05-17T08:40:54.759Z,7.27
2023-05-17T08:43:41.912Z,8.70
2023-05-17T08:46:31.896Z,7.60
2023-05-17T08:49:23.344Z,7.10
2023-05-17T08:52:11.515Z,6.50
2023-05-17T08:54:58.563Z,6.13
2023-05-17T08:57:46.174Z,7.37
2023-05-17T09:00:33.813Z,5.27
2023-05-17T09:03:22.567Z,4.87
2023-05-17T09:06:11.527Z,5.90
2023-05-17T09:08:59.070Z,4.77
2023-05-17T09:11:46.687Z,7.03
2023-05-17T09:14:37.539Z,5.17
2023-05-17T09:17:24.189Z,6.43
2023-05-17T09:20:11.879Z,5.03
2023-05-17T09:22:58.297Z,7.50
2023-05-17T09:25:49.200Z,6.33
2023-05-17T09:28:41.025Z,7.07
2023-05-17T09:31:27.577Z,4.27
2023-05-17T09:34:20.770Z,8.03
2023-05-17T09:37:12.538Z,4.43
2023-05-17T09:39:58.509Z,5.00
2023-05-17T09:42:48.159Z,6.40
2023-05-17T09:45:34.364Z,4.83
2023-05-17T09:48:22.390Z,5.67
2023-05-17T09:51:07.867Z,7.13
2023-05-17T09:53:54.817Z,6.23
2023-05-17T09:56:41.180Z,6.87
2023-05-17T09:59:29.443Z,5.17
2023-05-17T10:02:24.482Z,5.00
2023-05-17T10:05:12.546Z,6.20
2023-05-17T10:07:58.618Z,5.70
2023-05-17T10:10:46.456Z,8.00
2023-05-17T10:13:37.488Z,5.40
2023-05-17T10:16:23.930Z,6.63
2023-05-17T10:19:10.620Z,6.13
2023-05-17T10:22:07.836Z,5.80
2023-05-17T10:25:04.520Z,4.83
2023-05-17T10:27:53.435Z,4.57
2023-05-17T10:30:40.650Z,6.37
2023-05-17T10:33:28.135Z,3.80
2023-05-17T10:36:17.715Z,3.83
2023-05-17T10:39:08.157Z,6.67
2023-05-17T10:42:13.004Z,7.17
2023-05-17T10:45:01.589Z,4.77
2023-05-17T10:47:46.923Z,4.50
2023-05-17T10:50:32.716Z,4.97
2023-05-17T10:53:18.051Z,4.40
2023-05-17T10:56:04.098Z,5.77
2023-05-17T10:59:17.058Z,4.50
2023-05-17T11:02:10.427Z,5.13
2023-05-17T11:05:00.511Z,4.28
2023-05-17T11:07:48.717Z,4.13
2023-05-17T11:10:36.112Z,3.43
2023-05-17T11:13:27.648Z,4.47
2023-05-17T11:16:17.978Z,5.43
2023-05-17T11:19:12.190Z,4.10
2023-05-17T11:21:58.036Z,3.50
2023-05-17T11:24:45.696Z,4.17
2023-05-17T11:27:36.959Z,4.93
2023-05-17T11:30:26.885Z,5.67
2023-05-17T11:33:21.321Z,4.90
2023-05-17T11:36:22.889Z,4.93
2023-05-17T11:39:13.794Z,5.90
2023-05-17T11:41:59.481Z,4.73
2023-05-17T11:44:44.947Z,4.10
2023-05-17T11:47:30.468Z,4.17
2023-05-17T11:50:17.671Z,5.10
2023-05-17T11:53:06.800Z,3.60
2023-05-17T11:55:53.061Z,4.47
2023-05-17T11:58:38.882Z,4.03
2023-05-17T12:01:24.795Z,3.80
2023-05-17T12:04:10.285Z,4.07
2023-05-17T12:06:56.322Z,3.53
2023-05-17T12:09:46.182Z,4.20
2023-05-17T12:12:31.443Z,2.93
2023-05-17T12:15:20.483Z,4.93
2023-05-17T12:18:06.164Z,3.90
2023-05-17T12:20:55.462Z,4.53
2023-05-17T12:23:50.896Z,2.53
2023-05-17T12:26:44.561Z,4.80
2023-05-17T12:29:30.309Z,3.63
2023-05-17T12:32:16.328Z,5.50
2023-05-17T12:35:02.325Z,4.07
2023-05-17T12:37:47.891Z,8.43
2023-05-17T12:40:33.139Z,6.13
2023-05-17T12:43:19.820Z,7.20
2023-05-17T12:46:12.447Z,11.37
2023-05-17T12:49:07.216Z,6.70
2023-05-17T12:51:52.932Z,6.93
2023-05-17T12:54:39.838Z,6.90
2023-05-17T12:57:25.064Z,8.10
2023-05-17T13:00:11.167Z,6.33
2023-05-17T13:02:57.135Z,6.93
2023-05-17T13:05:44.185Z,8.83
2023-05-17T13:08:29.891Z,9.33
2023-05-17T13:11:15.451Z,13.27
2023-05-17T13:14:00.698Z,6.30
2023-05-17T13:16:45.926Z,7.60
2023-05-17T13:19:31.250Z,6.57
2023-05-17T13:22:18.102Z,5.10
2023-05-17T13:25:03.626Z,6.93
2023-05-17T13:27:49.567Z,9.17
2023-05-17T13:30:35.018Z,11.70
2023-05-17T13:33:20.346Z,5.63
2023-05-17T13:36:06.615Z,5.80
2023-05-17T13:38:51.808Z,7.40
2023-05-17T13:41:37.151Z,8.03
2023-05-17T13:44:22.529Z,6.80
2023-05-17T13:47:08.236Z,7.67
2023-05-17T13:49:53.820Z,7.57
2023-05-17T13:52:39.457Z,7.57
2023-05-17T13:55:25.170Z,7.83
2023-05-17T13:58:10.336Z,7.30
2023-05-17T14:00:56.330Z,9.67
2023-05-17T14:03:41.657Z,8.83
2023-05-17T14:06:26.764Z,5.20
2023-05-17T14:09:12.955Z,6.10
2023-05-17T14:12:00.962Z,7.53
2023-05-17T14:14:46.489Z,5.30
2023-05-17T14:17:33.207Z,7.80
2023-05-17T14:20:18.759Z,5.97
2023-05-17T14:23:04.103Z,6.73
2023-05-17T14:25:49.524Z,6.13
2023-05-17T14:28:38.189Z,5.00
2023-05-17T14:31:23.971Z,5.23
2023-05-17T14:34:09.581Z,5.80
2023-05-17T14:36:55.550Z,5.57
2023-05-17T14:39:41.286Z,4.57
2023-05-17T14:42:28.002Z,8.87
2023-05-17T14:45:13.840Z,23.43
2023-05-17T14:47:59.564Z,42.13
2023-05-17T14:50:44.951Z,40.07
2023-05-17T14:53:30.970Z,37.63
2023-05-17T14:56:16.919Z,31.57
2023-05-17T14:59:03.338Z,37.73
2023-05-17T15:01:48.991Z,35.93
2023-05-17T15:04:34.855Z,35.30
2023-05-17T15:07:20.862Z,39.50
2023-05-17T15:10:06.674Z,42.03
2023-05-17T15:12:52.432Z,34.87
2023-05-17T15:15:38.448Z,33.43
2023-05-17T15:18:24.830Z,30.57
2023-05-17T15:21:10.567Z,30.50
2023-05-17T15:23:56.073Z,32.80
2023-05-17T15:26:41.926Z,38.63
2023-05-17T15:29:28.753Z,27.43
2023-05-17T15:32:14.343Z,28.67
2023-05-17T15:35:00.243Z,30.13
2023-05-17T15:37:46.242Z,24.53
2023-05-17T15:40:31.738Z,25.33
2023-05-17T15:43:17.245Z,28.07
2023-05-17T15:46:02.795Z,28.97
2023-05-17T15:48:48.525Z,24.97
2023-05-17T15:51:33.867Z,24.20
2023-05-17T15:54:19.404Z,24.30
2023-05-17T15:57:05.054Z,22.70
2023-05-17T15:59:51.185Z,22.30
2023-05-17T16:02:36.700Z,21.13
2023-05-17T16:05:22.531Z,19.27
2023-05-17T16:08:09.264Z,21.57
2023-05-17T16:10:54.808Z,18.83
2023-05-17T16:13:40.945Z,26.87
2023-05-17T16:16:26.528Z,18.13
2023-05-17T16:19:13.008Z,24.73
2023-05-17T16:22:06.751Z,17.67
2023-05-17T16:24:59.461Z,18.53
2023-05-17T16:27:46.687Z,19.17
2023-05-17T16:30:32.689Z,21.43
2023-05-17T16:33:22.818Z,23.73
2023-05-17T16:36:11.755Z,17.50
2023-05-17T16:39:18.822Z,22.07
2023-05-17T16:45:17.689Z,19.00
2023-05-17T16:48:06.882Z,16.13
2023-05-17T16:50:55.662Z,17.13
2023-05-17T16:53:48.864Z,17.17
2023-05-17T16:56:37.673Z,22.70
2023-05-17T16:59:23.201Z,13.50
2023-05-17T17:02:09.593Z,15.53
2023-05-17T17:04:55.812Z,15.60
2023-05-17T17:07:41.319Z,23.60
2023-05-17T17:10:26.886Z,19.50
2023-05-17T17:13:12.477Z,15.87
2023-05-17T17:15:58.018Z,20.27
2023-05-17T17:18:44.445Z,21.30
2023-05-17T17:21:36.534Z,15.23
2023-05-17T17:24:22.629Z,14.17
2023-05-17T17:27:09.378Z,16.10
2023-05-17T17:29:55.933Z,12.50
2023-05-17T17:32:42.910Z,19.20
2023-05-17T17:35:28.471Z,14.60
2023-05-17T17:38:14.477Z,14.60
2023-05-17T17:41:00.212Z,13.30
2023-05-17T17:43:48.008Z,13.23
2023-05-17T17:46:34.887Z,14.30
2023-05-17T17:49:20.164Z,15.83
2023-05-17T17:52:05.843Z,14.23
2023-05-17T17:54:51.336Z,17.23
2023-05-17T17:57:37.051Z,13.03
2023-05-17T18:00:23.870Z,11.30
2023-05-17T18:03:14.404Z,12.07
2023-05-17T18:06:00.954Z,11.30
2023-05-17T18:08:46.807Z,11.70
2023-05-17T18:11:36.353Z,12.20
2023-05-17T18:14:21.942Z,11.77
2023-05-17T18:17:12.118Z,13.23
2023-05-17T18:19:57.661Z,15.83
2023-05-17T18:22:43.455Z,10.10
2023-05-17T18:25:55.886Z,11.03
2023-05-17T18:28:43.221Z,10.90
2023-05-17T18:31:31.687Z,8.83
2023-05-17T18:34:18.837Z,8.30
2023-05-17T18:37:05.020Z,8.80
2023-05-17T18:39:51.496Z,8.13
2023-05-17T18:42:36.935Z,11.07
2023-05-17T18:45:22.303Z,12.97
2023-05-17T18:48:08.237Z,10.77
2023-05-17T18:50:53.549Z,9.17
2023-05-17T18:53:38.801Z,9.57
2023-05-17T18:56:25.194Z,10.00
2023-05-17T18:59:10.622Z,9.10
2023-05-17T19:01:55.995Z,9.30
2023-05-17T19:04:41.312Z,6.50
2023-05-17T19:07:26.348Z,9.97
2023-05-17T19:14:16.423Z,11.38
2023-05-17T19:17:01.789Z,7.60
2023-05-17T19:19:47.222Z,11.23
2023-05-17T19:22:32.817Z,8.83
2023-05-17T19:25:20.294Z,7.00
2023-05-17T19:28:06.344Z,7.57
2023-05-17T19:30:51.637Z,8.40
2023-05-17T19:33:37.781Z,7.67
2023-05-17T19:36:22.910Z,9.03
2023-05-17T19:39:08.161Z,6.93
2023-05-17T19:41:53.420Z,6.40
2023-05-17T19:44:38.772Z,7.43
2023-05-17T19:47:24.214Z,7.03
2023-05-17T19:50:11.569Z,9.50
2023-05-17T19:52:56.973Z,7.17
2023-05-17T19:55:42.262Z,7.67
2023-05-17T19:58:29.304Z,6.03
2023-05-17T20:01:14.924Z,7.17
2023-05-17T20:04:00.225Z,7.80
2023-05-17T20:06:46.246Z,7.20
2023-05-17T20:09:32.238Z,6.47
2023-05-17T20:12:17.658Z,7.07
2023-05-17T20:15:03.447Z,7.20
2023-05-17T20:17:48.910Z,7.50
2023-05-17T20:20:34.129Z,5.27
2023-05-17T20:23:19.428Z,6.43
2023-05-17T20:26:04.948Z,5.90
2023-05-17T20:28:50.316Z,5.30
2023-05-17T20:31:36.390Z,5.50
2023-05-17T20:34:22.065Z,6.57
2023-05-17T20:37:07.574Z,8.03
2023-05-17T20:39:53.353Z,5.17
2023-05-17T20:42:40.330Z,6.57
2023-05-17T20:45:30.020Z,6.27
2023-05-17T20:48:15.488Z,5.77
2023-05-17T20:51:01.224Z,4.47
2023-05-17T20:53:46.754Z,6.00
2023-05-17T20:56:37.024Z,6.13
2023-05-17T20:59:23.648Z,5.20
2023-05-17T21:02:09.175Z,6.47
2023-05-17T21:04:54.759Z,4.40
2023-05-17T21:07:40.414Z,4.73
2023-05-17T21:10:26.039Z,5.70
2023-05-17T21:13:12.480Z,4.70
2023-05-17T21:15:57.850Z,7.23
2023-05-17T21:18:45.110Z,5.63
2023-05-17T21:21:30.856Z,3.30
2023-05-17T21:24:16.466Z,5.77
2023-05-17T21:27:02.115Z,3.43
2023-05-17T21:29:47.779Z,4.70
2023-05-17T21:32:33.161Z,4.73
2023-05-17T21:35:18.438Z,4.27
2023-05-17T21:38:03.976Z,7.87
2023-05-17T21:40:49.685Z,6.87
2023-05-17T21:43:35.002Z,6.20
2023-05-17T21:46:20.298Z,5.07
2023-05-17T21:49:05.849Z,4.57
2023-05-17T21:51:51.654Z,4.50
2023-05-17T21:54:36.880Z,4.20
2023-05-17T21:57:22.138Z,4.13
2023-05-17T22:00:08.085Z,4.43
2023-05-17T22:02:53.468Z,5.47
2023-05-17T22:05:39.112Z,3.73
2023-05-17T22:08:24.450Z,6.07
2023-05-17T22:11:11.015Z,6.10
2023-05-17T22:13:57.084Z,5.60
2023-05-17T22:16:42.428Z,4.80
2023-05-17T22:19:30.355Z,5.27
2023-05-17T22:22:16.018Z,5.57
2023-05-17T22:25:01.594Z,2.87
2023-05-17T22:27:47.902Z,4.97
2023-05-17T22:30:33.614Z,5.03
2023-05-17T22:33:19.393Z,5.03
2023-05-17T22:36:05.127Z,5.23
2023-05-17T22:38:50.729Z,5.57
2023-05-17T22:41:36.589Z,4.97
2023-05-17T22:44:22.133Z,3.40
2023-05-17T22:47:08.823Z,4.33
2023-05-17T22:49:54.047Z,5.07
2023-05-17T22:52:42.736Z,4.00
2023-05-17T22:55:28.962Z,4.73
2023-05-17T22:58:15.486Z,5.20
2023-05-17T23:01:01.134Z,4.20
2023-05-17T23:03:46.493Z,5.27
2023-05-17T23:06:34.297Z,3.90
2023-05-17T23:09:22.004Z,6.17
2023-05-17T23:12:08.805Z,4.03
2023-05-17T23:14:57.953Z,4.70
2023-05-17T23:17:44.064Z,6.37
2023-05-17T23:20:29.942Z,4.03
2023-05-17T23:23:15.893Z,4.90
2023-05-17T23:26:01.936Z,5.50
2023-05-17T23:28:47.247Z,4.03
2023-05-17T23:31:33.903Z,3.87
2023-05-17T23:34:19.312Z,3.37
2023-05-17T23:37:04.927Z,3.87
2023-05-17T23:39:50.560Z,3.83
2023-05-17T23:42:36.378Z,5.43
2023-05-17T23:45:21.946Z,9.00
2023-05-17T23:48:09.826Z,3.10
2023-05-17T23:50:55.554Z,4.70
2023-05-17T23:53:42.173Z,5.13
2023-05-17T23:56:27.494Z,3.77
2023-05-17T23:59:12.957Z,3.13
